»·PEaware :: N728CS KSBP-KFAT

N728CS :: KSBP-KFAT

FLIGHT INFORMATION

Flight Status: Arrived
Operator: Privately registered:
United States
More flights under this callsign
Pilot: Chandler S. (807)
Aircraft: CESSNA 550 CITATION 2/S2/BRAVO
(C550)
More flights by this aircraft type
Origin: KSBP San Luis Co Regl
United States
Destination: KFAT Fresno Yosemite Intl
United States
More flights between these airports :: More routes between these airports
Route: CREPE3 PRB ALTTA
File this flight plan on PilotEdge
Remarks:
Altitude:
(Current/Filed)
15,000ft
Speed:
(Current/Filed)
300kts
Departed: 11-Jan-21 12:46 PM
Arrived: 11-Jan-21 01:21 PM
Distance/Time
Traveled:
103nm/0:35
Distance/Time
To Go:
Arrived

Flight Plot

Page will automatically refresh every two minutes.

Flight plan parsing failed; only flown route is shown


Map Options




Map Legend


Flown Route
Filed Route
Departure Airport
Arrival Airport
Navaid (VOR, NDB)
Fix

Horizontal Profiles

Position Reports

Time Latitude Longitude Heading Altitude Ground
Speed
11-Jan-21 12:32 35.238801 -120.639070 269 216ft 0kts
11-Jan-21 12:33 35.238801 -120.639070 269 216ft 0kts
11-Jan-21 12:34 35.238801 -120.639070 269 216ft 0kts
11-Jan-21 12:35 35.238801 -120.639070 269 216ft 0kts
11-Jan-21 12:36 35.238801 -120.639070 269 216ft 0kts
11-Jan-21 12:37 35.238801 -120.639070 269 216ft 0kts
11-Jan-21 12:38 35.238801 -120.639070 269 216ft 0kts
11-Jan-21 12:39 35.238801 -120.639070 269 216ft 0kts
11-Jan-21 12:40 35.238801 -120.639103 269 216ft 2kts
11-Jan-21 12:41 35.236813 -120.638178 124 216ft 12kts
11-Jan-21 12:42 35.234479 -120.634124 125 216ft 12kts
11-Jan-21 12:43 35.233224 -120.632451 208 216ft 0kts
11-Jan-21 12:44 35.233165 -120.632493 211 216ft 3kts
11-Jan-21 12:45 35.244187 -120.653229 302 1485ft 166kts
11-Jan-21 12:46 35.268261 -120.703714 306 4777ft 177kts
11-Jan-21 12:47 35.296089 -120.750350 306 7927ft 171kts
11-Jan-21 12:48 35.330354 -120.807784 306 9149ft 231kts
11-Jan-21 12:49 35.384574 -120.808935 40 11980ft 239kts
11-Jan-21 12:50 35.428646 -120.754233 40 14941ft 220kts
11-Jan-21 12:51 35.480083 -120.690432 42 15074ft 290kts
11-Jan-21 12:53 35.538715 -120.617169 42 15083ft 309kts
11-Jan-21 12:54 35.599299 -120.541414 42 15083ft 316kts
11-Jan-21 12:55 35.661031 -120.464070 42 15083ft 318kts
11-Jan-21 12:56 35.723198 -120.385989 42 15083ft 319kts
11-Jan-21 12:57 35.785244 -120.307846 42 15080ft 320kts
11-Jan-21 12:58 35.847425 -120.229396 42 15034ft 321kts
11-Jan-21 12:59 35.909746 -120.150579 42 15014ft 320kts
11-Jan-21 13:00 35.971895 -120.071793 42 15023ft 320kts
11-Jan-21 13:01 36.033899 -119.993003 42 15026ft 320kts
11-Jan-21 13:02 36.095629 -119.914370 42 15026ft 320kts
11-Jan-21 13:03 36.154601 -119.839082 42 14783ft 317kts
11-Jan-21 13:04 36.208068 -119.770570 42 13482ft 291kts
11-Jan-21 13:05 36.262753 -119.700477 42 11984ft 275kts
11-Jan-21 13:06 36.313463 -119.635470 43 10537ft 269kts
11-Jan-21 13:07 36.365322 -119.568746 44 9094ft 266kts
11-Jan-21 13:08 36.416421 -119.502811 45 7619ft 260kts
11-Jan-21 13:08 36.455510 -119.452277 44 6288ft 233kts
11-Jan-21 13:10 36.505044 -119.388169 45 4457ft 220kts
11-Jan-21 13:11 36.549956 -119.357100 354 3040ft 209kts
11-Jan-21 13:11 36.586040 -119.384717 305 2800ft 170kts
11-Jan-21 13:12 36.611555 -119.429108 303 2804ft 159kts
11-Jan-21 13:13 36.638519 -119.476170 304 2803ft 173kts
11-Jan-21 13:15 36.671129 -119.532886 304 2800ft 179kts
11-Jan-21 13:15 36.696431 -119.576999 304 1922ft 196kts
11-Jan-21 13:16 36.721568 -119.620680 304 1793ft 121kts
11-Jan-21 13:17 36.737399 -119.648640 304 1434ft 86kts
11-Jan-21 13:18 36.753332 -119.676486 304 928ft 112kts
11-Jan-21 13:19 36.770420 -119.706288 304 344ft 92kts
11-Jan-21 13:20 36.775479 -119.713212 34 338ft 8kts
11-Jan-21 13:21 36.775776 -119.712947 35 338ft 8kts
11-Jan-21 13:22 36.773861 -119.708559 126 338ft 13kts
11-Jan-21 13:23 36.773660 -119.706348 80 338ft 0kts

Navigation Log

Ident Type
Flight plan parsing failed, navigation log unavailable